Terminal Aerodrome Forecast
Issued by NWS Atlanta, GA

Home | Current Version | Previous Version | Text Only | Print | Product List | Glossary On
Versions: 1 2 3 4 5 6 7 8 9 10 11 12 13 14 15 16 17 18 19 20 21 22
000
FTUS42 KFFC 311454 AAA
TAFCSG
TAF AMD
KCSG 311454Z 3115/0112 03004KT P6SM FEW025 BKN040
     FM311800 VRB05KT P6SM SCT040
     FM010000 VRB03KT P6SM SCT045 SCT250
     FM010900 00000KT 3SM BR SCT002 SCT250=

USA.gov is the U.S. government's official web portal to all federal, state and local government web resources and services.